This is the latest recevied weather packets stored in our database for station/object WX4HP-13. If no packets are shown the sender has not sent any weather packets the latest 1 day(s).
| Time | Temp. | Humidity | Pressure | Rain* | Wind** | Luminosity | Snow |
|---|---|---|---|---|---|---|---|
| 1778085596 | 22.22° C | 79% | 1012.1 hPa | 0 mm | - | - | - |
| 1778084998 | 22.22° C | 79% | 1012.1 hPa | 0 mm | - | - | - |
| 1778084096 | 22.78° C | 77% | 1012 hPa | 0 mm | - | - | - |
| 1778081997 | 21.67° C | 80% | 1012.3 hPa | 0 mm | - | - | - |
| 1778081696 | 21.67° C | 82% | 1012.3 hPa | 0 mm | - | - | - |
| 1778080796 | 20.56° C | 84% | 1012.5 hPa | 0 mm | - | - | - |
| 1778080196 | 20° C | 86% | 1012.6 hPa | 0 mm | - | - | - |
| 1778079596 | 20° C | 87% | 1012.8 hPa | 0 mm | - | - | - |
| 1778079296 | 19.44° C | 88% | 1012.8 hPa | 0 mm | - | - | - |
| 1778077496 | 18.33° C | 94% | 1013.1 hPa | 0 mm | - | - | - |
| 1778075696 | 17.78° C | 94% | 1013.8 hPa | 0 mm | - | - | - |
| 1778073296 | 18.33° C | 90% | 1013.4 hPa | 0 mm | - | - | - |
| 1778068495 | 18.89° C | 84% | 1011.8 hPa | 0 mm | - | - | - |
| 1778068195 | 18.89° C | 84% | 1011.8 hPa | 0 mm | - | - | - |
| 1778067595 | 18.89° C | 84% | 1011.4 hPa | 0 mm | - | - | - |
| 1778066695 | 18.89° C | 83% | 1011.3 hPa | 0 mm | - | - | - |
| 1778066096 | 18.89° C | 83% | 1011.1 hPa | 0 mm | - | - | - |
| 1778065495 | 18.89° C | 83% | 1011.1 hPa | 0 mm | - | - | - |
| 1778064295 | 18.89° C | 82% | 1011 hPa | 0 mm | - | - | - |
| 1778063995 | 18.89° C | 81% | 1010.9 hPa | 0 mm | - | - | - |
| 1778063395 | 18.89° C | 81% | 1011.1 hPa | 0 mm | - | - | - |
| 1778063095 | 18.89° C | 81% | 1010.8 hPa | 0 mm | - | - | - |
| 1778062795 | 18.89° C | 81% | 1010.8 hPa | 0 mm | - | - | - |
| 1778062495 | 18.89° C | 81% | 1010.7 hPa | 0 mm | - | - | - |
| 1778061895 | 18.89° C | 80% | 1010.4 hPa | 0 mm | - | - | - |
* Rain latest hour (hover to see other rain measurements)
** Current wind speed in m/s (hover to see current wind gust speed)